createdAt,value
2023-01-17T00:02:49.724Z,92.60
2023-01-17T00:06:11.768Z,92.40
2023-01-17T00:09:34.016Z,92.43
2023-01-17T00:12:37.150Z,92.31
2023-01-17T00:15:40.236Z,92.32
2023-01-17T00:19:03.237Z,92.15
2023-01-17T00:22:38.804Z,91.91
2023-01-17T00:26:00.651Z,91.92
2023-01-17T00:29:03.366Z,92.02
2023-01-17T00:32:06.384Z,92.08
2023-01-17T00:35:09.099Z,91.96
2023-01-17T00:38:15.095Z,92.14
2023-01-17T00:41:18.271Z,92.50
2023-01-17T00:44:39.925Z,92.55
2023-01-17T00:48:04.772Z,92.90
2023-01-17T00:51:26.764Z,92.91
2023-01-17T00:54:47.942Z,93.25
2023-01-17T00:58:09.595Z,93.26
2023-01-17T01:01:31.018Z,93.38
2023-01-17T01:04:52.644Z,93.75
2023-01-17T01:08:14.284Z,93.82
2023-01-17T01:11:39.543Z,94.14
2023-01-17T01:15:00.814Z,93.83
2023-01-17T01:18:30.332Z,93.80
2023-01-17T01:21:51.843Z,93.88
2023-01-17T01:25:13.741Z,94.29
2023-01-17T01:28:34.817Z,95.46
2023-01-17T01:31:56.506Z,95.91
2023-01-17T01:34:59.194Z,96.10
2023-01-17T01:38:03.201Z,95.81
2023-01-17T01:41:06.248Z,96.79
2023-01-17T01:44:46.744Z,97.74
2023-01-17T01:47:51.706Z,98.77
2023-01-17T01:50:55.336Z,98.21
2023-01-17T01:54:04.939Z,98.92
2023-01-17T01:57:11.463Z,98.82
2023-01-17T02:00:20.133Z,98.37
2023-01-17T02:03:30.061Z,98.46
2023-01-17T02:06:39.965Z,98.67
2023-01-17T02:09:43.203Z,98.01
2023-01-17T02:12:46.968Z,98.23
2023-01-17T02:16:19.171Z,98.16
2023-01-17T02:19:43.208Z,98.07
2023-01-17T02:22:58.318Z,98.05
2023-01-17T02:26:19.564Z,98.10
2023-01-17T02:30:10.319Z,98.02
2023-01-17T02:33:54.664Z,97.92
2023-01-17T02:37:08.028Z,97.88
2023-01-17T02:40:16.995Z,97.71
2023-01-17T02:43:22.040Z,97.74
2023-01-17T02:46:24.801Z,98.18
2023-01-17T02:49:32.112Z,98.45
2023-01-17T02:52:49.765Z,97.89
2023-01-17T02:56:04.934Z,97.91
2023-01-17T02:59:48.338Z,98.36
2023-01-17T03:03:20.045Z,98.04
2023-01-17T03:06:45.179Z,98.38
2023-01-17T03:09:53.789Z,98.03
2023-01-17T03:13:01.009Z,97.88
2023-01-17T03:16:07.291Z,98.12
2023-01-17T03:19:10.185Z,97.75
2023-01-17T03:22:13.365Z,97.48
2023-01-17T03:25:17.345Z,97.26
2023-01-17T03:28:20.435Z,97.23
2023-01-17T03:31:23.162Z,97.13
2023-01-17T03:34:26.262Z,97.46
2023-01-17T03:37:29.008Z,97.62
2023-01-17T03:40:32.099Z,97.48
2023-01-17T03:43:34.915Z,97.16
2023-01-17T03:46:37.976Z,96.54
2023-01-17T03:49:40.846Z,96.78
2023-01-17T03:52:43.921Z,97.00
2023-01-17T03:55:47.258Z,96.94
2023-01-17T03:58:51.704Z,97.15
2023-01-17T04:01:54.539Z,97.43
2023-01-17T04:04:57.591Z,97.51
2023-01-17T04:08:00.328Z,97.63
2023-01-17T04:11:03.335Z,97.67
2023-01-17T04:14:06.108Z,97.88
2023-01-17T04:17:18.750Z,98.30
2023-01-17T04:20:34.453Z,97.95
2023-01-17T04:23:37.564Z,98.21
2023-01-17T04:26:40.236Z,98.55
2023-01-17T04:29:45.309Z,98.47
2023-01-17T04:32:49.727Z,98.70
2023-01-17T04:35:54.057Z,98.90
2023-01-17T04:38:57.004Z,98.83
2023-01-17T04:42:00.235Z,98.81
2023-01-17T04:45:04.059Z,98.97
2023-01-17T04:48:07.610Z,99.09
2023-01-17T04:51:10.743Z,98.99
2023-01-17T04:54:13.843Z,99.00
2023-01-17T04:57:17.921Z,98.87
2023-01-17T05:00:23.902Z,98.57
2023-01-17T05:03:27.177Z,98.70
2023-01-17T05:06:30.305Z,98.59
2023-01-17T05:09:33.288Z,98.88
2023-01-17T05:12:37.447Z,99.17
2023-01-17T05:15:40.447Z,99.51
2023-01-17T05:18:43.516Z,100.00
2023-01-17T05:21:46.209Z,100.00
2023-01-17T05:24:49.341Z,100.00
2023-01-17T05:27:52.240Z,100.00
2023-01-17T05:30:55.486Z,100.00
2023-01-17T05:33:58.132Z,100.00
2023-01-17T05:37:01.177Z,100.00
2023-01-17T05:40:06.377Z,100.00
2023-01-17T05:43:09.465Z,99.96
2023-01-17T05:46:12.599Z,100.00
2023-01-17T05:49:15.662Z,100.00
2023-01-17T05:52:18.412Z,100.00
2023-01-17T05:55:22.432Z,100.00
2023-01-17T05:58:25.152Z,100.00
2023-01-17T06:01:28.533Z,100.00
2023-01-17T06:04:31.744Z,100.00
2023-01-17T06:07:34.825Z,100.00
2023-01-17T06:10:37.894Z,100.00
2023-01-17T06:13:40.577Z,100.00
2023-01-17T06:16:43.995Z,99.98
2023-01-17T06:19:46.862Z,99.75
2023-01-17T06:22:50.129Z,99.65
2023-01-17T06:25:53.015Z,99.52
2023-01-17T06:28:55.951Z,99.40
2023-01-17T06:32:01.528Z,99.39
2023-01-17T06:35:05.048Z,99.32
2023-01-17T06:38:10.151Z,99.29
2023-01-17T06:41:13.124Z,99.10
2023-01-17T06:44:15.945Z,99.09
2023-01-17T06:47:18.923Z,99.10
2023-01-17T06:50:22.330Z,99.15
2023-01-17T06:53:25.455Z,99.27
2023-01-17T06:56:32.017Z,99.22
2023-01-17T06:59:35.150Z,99.10
2023-01-17T07:02:37.913Z,99.14
2023-01-17T07:05:41.799Z,99.26
2023-01-17T07:08:44.779Z,99.15
2023-01-17T07:11:47.890Z,99.13
2023-01-17T07:14:50.608Z,99.43
2023-01-17T07:17:53.603Z,99.55
2023-01-17T07:20:56.450Z,99.59
2023-01-17T07:23:59.490Z,99.64
2023-01-17T07:27:02.297Z,99.71
2023-01-17T07:30:06.366Z,99.58
2023-01-17T07:33:09.838Z,99.77
2023-01-17T07:36:12.928Z,99.91
2023-01-17T07:39:16.461Z,100.00
2023-01-17T07:42:19.612Z,100.00
2023-01-17T07:45:22.303Z,99.40
2023-01-17T07:48:25.406Z,99.18
2023-01-17T07:51:28.699Z,99.45
2023-01-17T07:54:31.899Z,98.81
2023-01-17T07:57:34.772Z,99.56
2023-01-17T08:00:37.994Z,99.61
2023-01-17T08:03:41.615Z,99.55
2023-01-17T08:06:47.849Z,99.41
2023-01-17T08:09:50.975Z,98.60
2023-01-17T08:12:53.843Z,98.16
2023-01-17T08:15:57.231Z,97.65
2023-01-17T08:18:59.922Z,97.27
2023-01-17T08:22:03.031Z,97.32
2023-01-17T08:25:06.443Z,97.11
2023-01-17T08:28:09.940Z,97.15
2023-01-17T08:31:12.709Z,96.71
2023-01-17T08:34:16.309Z,96.29
2023-01-17T08:37:19.037Z,95.63
2023-01-17T08:40:23.243Z,94.07
2023-01-17T08:43:26.013Z,92.97
2023-01-17T08:46:30.918Z,91.95
2023-01-17T08:49:34.928Z,88.05
2023-01-17T08:52:38.534Z,88.25
2023-01-17T08:55:41.352Z,83.58
2023-01-17T08:58:44.755Z,81.44
2023-01-17T09:01:47.641Z,77.38
2023-01-17T09:04:51.692Z,69.70
2023-01-17T09:07:56.769Z,71.14
2023-01-17T09:11:04.176Z,63.65
2023-01-17T09:14:07.242Z,67.33
2023-01-17T09:17:10.630Z,63.10
2023-01-17T09:20:14.191Z,66.03
2023-01-17T09:23:17.249Z,63.09
2023-01-17T09:26:23.981Z,62.06
2023-01-17T09:29:27.625Z,62.05
2023-01-17T09:32:30.446Z,62.39
2023-01-17T09:35:34.595Z,63.34
2023-01-17T09:38:38.153Z,66.05
2023-01-17T09:42:00.049Z,67.15
2023-01-17T09:45:03.188Z,63.79
2023-01-17T09:48:10.409Z,63.40
2023-01-17T09:51:21.449Z,65.75
2023-01-17T09:54:29.992Z,69.39
2023-01-17T09:58:14.303Z,68.30
2023-01-17T10:01:37.711Z,65.12
2023-01-17T10:05:08.649Z,63.25
2023-01-17T10:08:20.447Z,62.96
2023-01-17T10:11:41.951Z,58.33
2023-01-17T10:15:15.223Z,55.04
2023-01-17T10:18:29.909Z,56.10
2023-01-17T10:21:59.399Z,56.92
2023-01-17T10:25:23.394Z,54.00
2023-01-17T10:28:41.709Z,51.68
2023-01-17T10:32:03.124Z,52.99
2023-01-17T10:35:33.383Z,55.88
2023-01-17T10:38:38.920Z,58.29
2023-01-17T10:41:46.444Z,59.02
2023-01-17T10:45:08.187Z,55.77
2023-01-17T10:48:18.787Z,56.91
2023-01-17T10:51:31.628Z,55.07
2023-01-17T10:54:53.073Z,52.36
2023-01-17T10:57:58.132Z,55.33
2023-01-17T11:01:07.954Z,51.26
2023-01-17T11:04:23.241Z,49.36
2023-01-17T11:07:28.656Z,47.14
2023-01-17T11:10:54.428Z,48.61
2023-01-17T11:14:01.041Z,47.91
2023-01-17T11:17:07.138Z,47.77
2023-01-17T11:20:35.391Z,47.30
2023-01-17T11:23:42.331Z,45.06
2023-01-17T11:26:48.145Z,47.81
2023-01-17T11:30:26.290Z,49.42
2023-01-17T11:33:45.406Z,47.45
2023-01-17T11:36:50.265Z,46.29
2023-01-17T11:40:07.786Z,47.10
2023-01-17T11:43:18.917Z,50.21
2023-01-17T11:46:22.133Z,46.18
2023-01-17T11:49:26.204Z,47.21
2023-01-17T11:52:33.832Z,46.07
2023-01-17T11:55:37.047Z,43.97
2023-01-17T11:58:42.644Z,46.96
2023-01-17T12:01:48.530Z,44.76
2023-01-17T12:05:15.580Z,44.89
2023-01-17T12:08:33.416Z,46.44
2023-01-17T12:12:29.504Z,46.33
2023-01-17T12:15:52.148Z,47.29
2023-01-17T12:19:26.291Z,48.07
2023-01-17T12:23:03.091Z,47.49
2023-01-17T12:26:26.446Z,50.04
2023-01-17T12:29:44.077Z,52.59
2023-01-17T12:33:19.336Z,54.16
2023-01-17T12:36:22.063Z,55.55
2023-01-17T12:39:34.596Z,56.73
2023-01-17T12:42:41.592Z,60.80
2023-01-17T12:45:47.643Z,61.15
2023-01-17T12:48:54.633Z,59.51
2023-01-17T12:52:21.654Z,60.94
2023-01-17T12:55:36.738Z,61.15
2023-01-17T12:58:47.493Z,61.46
2023-01-17T13:01:57.958Z,60.50
2023-01-17T13:05:13.157Z,64.78
2023-01-17T13:08:41.469Z,65.01
2023-01-17T13:11:52.240Z,64.56
2023-01-17T13:14:55.756Z,66.07
2023-01-17T13:18:22.779Z,68.52
2023-01-17T13:21:31.529Z,68.99
2023-01-17T13:25:05.677Z,70.61
2023-01-17T13:28:36.120Z,71.43
2023-01-17T13:31:48.486Z,71.83
2023-01-17T13:35:13.127Z,72.44
2023-01-17T13:38:26.196Z,70.84
2023-01-17T13:41:48.580Z,70.74
2023-01-17T13:44:51.983Z,74.43
2023-01-17T13:48:12.537Z,75.04
2023-01-17T13:51:15.593Z,76.16
2023-01-17T13:54:32.076Z,75.55
2023-01-17T13:57:43.790Z,77.02
2023-01-17T14:00:46.786Z,77.58
2023-01-17T14:03:52.601Z,78.79
2023-01-17T14:06:58.091Z,78.87
2023-01-17T14:10:01.188Z,78.69
2023-01-17T14:13:07.055Z,79.15
2023-01-17T14:16:28.125Z,78.95
2023-01-17T14:19:37.335Z,78.71
2023-01-17T14:22:50.652Z,78.86
2023-01-17T14:25:54.045Z,78.17
2023-01-17T14:28:58.880Z,78.51
2023-01-17T14:32:05.750Z,78.02
2023-01-17T14:35:31.811Z,78.37
2023-01-17T14:38:42.951Z,78.14
2023-01-17T14:41:46.043Z,77.88
2023-01-17T14:44:50.949Z,78.14
2023-01-17T14:47:54.077Z,78.19
2023-01-17T14:51:00.268Z,77.32
2023-01-17T14:54:14.790Z,78.42
2023-01-17T14:57:29.605Z,77.56
2023-01-17T15:00:38.482Z,77.78
2023-01-17T15:03:46.537Z,78.15
2023-01-17T15:06:49.845Z,78.16
2023-01-17T15:09:52.588Z,78.48
2023-01-17T15:12:57.746Z,77.01
2023-01-17T15:16:06.296Z,78.15
2023-01-17T15:19:15.125Z,77.63
2023-01-17T15:22:19.448Z,78.80
2023-01-17T15:25:22.652Z,77.16
2023-01-17T15:28:25.706Z,77.71
2023-01-17T15:31:45.868Z,77.83
2023-01-17T15:34:50.635Z,77.62
2023-01-17T15:37:55.117Z,77.21
2023-01-17T15:41:11.893Z,77.12
2023-01-17T15:44:47.665Z,76.78
2023-01-17T15:47:51.129Z,76.63
2023-01-17T15:51:00.113Z,77.26
2023-01-17T15:54:30.840Z,76.48
2023-01-17T15:57:37.075Z,78.02
2023-01-17T16:00:42.166Z,77.31
2023-01-17T16:03:55.579Z,78.00
2023-01-17T16:07:09.841Z,78.69
2023-01-17T16:10:18.967Z,80.47
2023-01-17T16:13:22.107Z,80.38
2023-01-17T16:16:26.008Z,81.28
2023-01-17T16:19:28.973Z,81.71
2023-01-17T16:22:32.113Z,82.81
2023-01-17T16:25:35.009Z,82.01
2023-01-17T16:28:39.209Z,83.43
2023-01-17T16:31:42.405Z,83.15
2023-01-17T16:34:45.940Z,84.02
2023-01-17T16:37:54.004Z,83.33
2023-01-17T16:40:57.206Z,84.48
2023-01-17T16:44:02.919Z,83.85
2023-01-17T16:47:05.907Z,83.73
2023-01-17T16:50:10.856Z,83.77
2023-01-17T16:53:15.948Z,83.79
2023-01-17T16:56:19.936Z,83.23
2023-01-17T16:59:23.183Z,84.25
2023-01-17T17:02:25.917Z,82.57
2023-01-17T17:05:31.107Z,84.04
2023-01-17T17:08:35.708Z,83.49
2023-01-17T17:11:38.721Z,84.74
2023-01-17T17:14:41.827Z,82.58
2023-01-17T17:17:44.924Z,82.15
2023-01-17T17:20:49.699Z,83.10
2023-01-17T17:23:57.117Z,83.10
2023-01-17T17:27:00.755Z,83.21
2023-01-17T17:30:04.901Z,85.17
2023-01-17T17:33:07.963Z,86.04
2023-01-17T17:36:12.007Z,86.39
2023-01-17T17:39:17.466Z,86.32
2023-01-17T17:42:21.069Z,86.94
2023-01-17T17:45:24.049Z,86.91
2023-01-17T17:48:27.997Z,86.77
2023-01-17T17:51:34.005Z,87.61
2023-01-17T17:54:37.298Z,87.45
2023-01-17T17:57:40.966Z,86.66
2023-01-17T18:00:45.177Z,87.20
2023-01-17T18:03:49.060Z,88.00
2023-01-17T18:06:55.517Z,87.71
2023-01-17T18:09:59.480Z,89.17
2023-01-17T18:13:03.001Z,87.64
2023-01-17T18:16:17.406Z,88.57
2023-01-17T18:19:23.583Z,88.93
2023-01-17T18:22:27.730Z,88.71
2023-01-17T18:25:31.347Z,89.85
2023-01-17T18:28:35.506Z,90.56
2023-01-17T18:31:38.785Z,91.13
2023-01-17T18:34:43.391Z,91.61
2023-01-17T18:37:47.590Z,91.92
2023-01-17T18:40:51.753Z,91.22
2023-01-17T18:43:58.207Z,90.92
2023-01-17T18:47:04.879Z,90.64
2023-01-17T18:50:09.213Z,91.37
2023-01-17T18:53:13.115Z,90.95
2023-01-17T18:56:19.586Z,91.62
2023-01-17T18:59:23.690Z,91.63
2023-01-17T19:02:27.188Z,92.07
2023-01-17T19:05:31.305Z,92.86
2023-01-17T19:08:36.152Z,93.66
2023-01-17T19:11:40.104Z,94.09
2023-01-17T19:14:43.726Z,94.26
2023-01-17T19:17:48.056Z,94.25
2023-01-17T19:20:54.027Z,94.66
2023-01-17T19:23:59.912Z,94.91
2023-01-17T19:27:07.759Z,94.56
2023-01-17T19:30:12.783Z,94.29
2023-01-17T19:33:18.307Z,94.65
2023-01-17T19:36:25.290Z,94.01
2023-01-17T19:39:31.173Z,95.05
2023-01-17T19:42:35.179Z,94.66
2023-01-17T19:45:39.305Z,94.71
2023-01-17T19:48:43.845Z,95.36
2023-01-17T19:51:47.324Z,95.26
2023-01-17T19:54:51.256Z,95.34
2023-01-17T19:57:55.178Z,95.08
2023-01-17T20:01:11.266Z,95.05
2023-01-17T20:04:19.657Z,95.03
2023-01-17T20:07:23.526Z,94.80
2023-01-17T20:10:28.174Z,94.55
2023-01-17T20:13:32.673Z,94.18
2023-01-17T20:16:41.773Z,94.13
2023-01-17T20:19:46.606Z,93.92
2023-01-17T20:22:50.480Z,93.98
2023-01-17T20:26:02.241Z,94.46
2023-01-17T20:29:11.377Z,94.31
2023-01-17T20:32:14.605Z,94.16
2023-01-17T20:35:18.478Z,94.20
2023-01-17T20:38:21.768Z,93.59
2023-01-17T20:41:30.394Z,93.93
2023-01-17T20:44:34.777Z,93.72
2023-01-17T20:47:38.021Z,93.59
2023-01-17T20:50:41.366Z,93.94
2023-01-17T20:53:45.999Z,93.75
2023-01-17T20:56:49.456Z,93.65
2023-01-17T20:59:53.548Z,93.43
2023-01-17T21:02:57.631Z,93.93
2023-01-17T21:06:21.038Z,94.31
2023-01-17T21:09:24.722Z,94.60
2023-01-17T21:12:28.377Z,94.37
2023-01-17T21:15:31.048Z,94.33
2023-01-17T21:18:34.841Z,94.48
2023-01-17T21:21:38.006Z,95.08
2023-01-17T21:24:41.602Z,94.23
2023-01-17T21:27:45.819Z,94.27
2023-01-17T21:30:51.822Z,93.63
2023-01-17T21:34:00.040Z,93.91
2023-01-17T21:37:03.219Z,92.18
2023-01-17T21:40:06.292Z,92.86
2023-01-17T21:43:10.151Z,92.25
2023-01-17T21:46:12.985Z,92.31
2023-01-17T21:49:17.398Z,93.29
2023-01-17T21:52:20.113Z,93.61
2023-01-17T21:55:41.897Z,92.98
2023-01-17T21:58:45.031Z,92.94
2023-01-17T22:01:48.243Z,92.48
2023-01-17T22:04:51.646Z,93.04
2023-01-17T22:08:12.904Z,93.26
2023-01-17T22:11:19.075Z,92.81
2023-01-17T22:14:21.800Z,92.70
2023-01-17T22:17:25.075Z,92.39
2023-01-17T22:20:27.947Z,92.25
2023-01-17T22:23:31.135Z,92.22
2023-01-17T22:26:33.928Z,91.84
2023-01-17T22:29:38.148Z,91.68
2023-01-17T22:32:41.313Z,91.40
2023-01-17T22:35:44.391Z,91.10
2023-01-17T22:38:47.470Z,91.85
2023-01-17T22:41:50.485Z,91.89
2023-01-17T22:44:53.135Z,91.42
2023-01-17T22:47:56.334Z,91.77
2023-01-17T22:51:02.167Z,91.73
2023-01-17T22:54:05.629Z,91.75
2023-01-17T22:57:08.606Z,92.21
2023-01-17T23:00:14.771Z,92.42
2023-01-17T23:03:17.675Z,92.85
2023-01-17T23:06:27.457Z,92.69
2023-01-17T23:09:30.259Z,93.45
2023-01-17T23:12:33.408Z,93.32
2023-01-17T23:15:57.510Z,92.83
2023-01-17T23:19:19.387Z,92.57
2023-01-17T23:22:26.995Z,91.86
2023-01-17T23:25:30.235Z,91.90
2023-01-17T23:28:33.041Z,92.49
2023-01-17T23:31:36.892Z,93.02
2023-01-17T23:34:39.574Z,93.27
2023-01-17T23:38:01.476Z,92.43
2023-01-17T23:41:27.371Z,92.55
2023-01-17T23:44:32.017Z,92.35
2023-01-17T23:47:34.714Z,92.13
2023-01-17T23:50:44.329Z,92.28
2023-01-17T23:53:47.266Z,92.47
2023-01-17T23:56:50.300Z,92.49
2023-01-17T23:59:52.998Z,92.66
